sensor_id;sensor_type;location;lat;lon;timestamp;P1;durP1;ratioP1;P2;durP2;ratioP2
65174;SDS011;51761;42.126;24.752;2024-02-21T00:01:23;68.00;;;33.55;;
65174;SDS011;51761;42.126;24.752;2024-02-21T00:03:49;65.78;;;32.40;;
65174;SDS011;51761;42.126;24.752;2024-02-21T00:06:14;73.32;;;33.47;;
65174;SDS011;51761;42.126;24.752;2024-02-21T00:08:39;66.75;;;33.33;;
65174;SDS011;51761;42.126;24.752;2024-02-21T00:11:05;69.72;;;33.42;;
65174;SDS011;51761;42.126;24.752;2024-02-21T00:13:30;72.65;;;34.42;;
65174;SDS011;51761;42.126;24.752;2024-02-21T00:15:56;72.32;;;33.10;;
65174;SDS011;51761;42.126;24.752;2024-02-21T00:18:21;77.00;;;35.22;;
65174;SDS011;51761;42.126;24.752;2024-02-21T00:20:46;77.65;;;36.45;;
65174;SDS011;51761;42.126;24.752;2024-02-21T00:23:12;79.70;;;35.67;;
65174;SDS011;51761;42.126;24.752;2024-02-21T00:25:37;72.97;;;37.30;;
65174;SDS011;51761;42.126;24.752;2024-02-21T00:28:02;80.55;;;37.17;;
65174;SDS011;51761;42.126;24.752;2024-02-21T00:30:28;77.53;;;36.28;;
65174;SDS011;51761;42.126;24.752;2024-02-21T00:32:53;75.47;;;37.40;;
65174;SDS011;51761;42.126;24.752;2024-02-21T00:35:18;77.75;;;36.88;;
65174;SDS011;51761;42.126;24.752;2024-02-21T00:37:44;80.35;;;37.20;;
65174;SDS011;51761;42.126;24.752;2024-02-21T00:40:09;82.60;;;37.92;;
65174;SDS011;51761;42.126;24.752;2024-02-21T00:42:35;76.45;;;37.17;;
65174;SDS011;51761;42.126;24.752;2024-02-21T00:45:00;80.97;;;37.20;;
65174;SDS011;51761;42.126;24.752;2024-02-21T00:47:26;75.95;;;37.97;;
65174;SDS011;51761;42.126;24.752;2024-02-21T00:49:51;80.40;;;38.30;;
65174;SDS011;51761;42.126;24.752;2024-02-21T00:52:16;82.57;;;40.08;;
65174;SDS011;51761;42.126;24.752;2024-02-21T00:54:42;83.03;;;38.65;;
65174;SDS011;51761;42.126;24.752;2024-02-21T00:57:07;89.85;;;41.15;;
65174;SDS011;51761;42.126;24.752;2024-02-21T00:59:32;86.13;;;40.65;;
65174;SDS011;51761;42.126;24.752;2024-02-21T01:01:58;78.80;;;38.67;;
65174;SDS011;51761;42.126;24.752;2024-02-21T01:04:23;85.45;;;39.95;;
65174;SDS011;51761;42.126;24.752;2024-02-21T01:06:49;77.03;;;37.75;;
65174;SDS011;51761;42.126;24.752;2024-02-21T01:09:15;87.30;;;41.60;;
65174;SDS011;51761;42.126;24.752;2024-02-21T01:11:40;89.53;;;41.95;;
65174;SDS011;51761;42.126;24.752;2024-02-21T01:14:05;93.65;;;40.65;;
65174;SDS011;51761;42.126;24.752;2024-02-21T01:16:30;76.68;;;37.45;;
65174;SDS011;51761;42.126;24.752;2024-02-21T01:18:56;78.78;;;39.45;;
65174;SDS011;51761;42.126;24.752;2024-02-21T01:21:21;77.28;;;37.72;;
65174;SDS011;51761;42.126;24.752;2024-02-21T01:23:46;79.05;;;38.67;;
65174;SDS011;51761;42.126;24.752;2024-02-21T01:26:12;81.00;;;40.10;;
65174;SDS011;51761;42.126;24.752;2024-02-21T01:28:38;80.97;;;38.53;;
65174;SDS011;51761;42.126;24.752;2024-02-21T01:31:04;77.10;;;38.15;;
65174;SDS011;51761;42.126;24.752;2024-02-21T01:33:29;76.85;;;36.78;;
65174;SDS011;51761;42.126;24.752;2024-02-21T01:36:00;69.72;;;35.17;;
65174;SDS011;51761;42.126;24.752;2024-02-21T01:38:25;78.22;;;37.70;;
65174;SDS011;51761;42.126;24.752;2024-02-21T01:40:50;79.63;;;37.78;;
65174;SDS011;51761;42.126;24.752;2024-02-21T01:43:16;71.63;;;36.67;;
65174;SDS011;51761;42.126;24.752;2024-02-21T01:45:43;80.10;;;37.40;;
65174;SDS011;51761;42.126;24.752;2024-02-21T01:48:08;80.63;;;37.33;;
65174;SDS011;51761;42.126;24.752;2024-02-21T01:50:33;69.30;;;34.33;;
65174;SDS011;51761;42.126;24.752;2024-02-21T01:52:59;78.72;;;36.20;;
65174;SDS011;51761;42.126;24.752;2024-02-21T01:55:24;77.80;;;38.05;;
65174;SDS011;51761;42.126;24.752;2024-02-21T01:57:50;73.90;;;36.67;;
65174;SDS011;51761;42.126;24.752;2024-02-21T02:00:15;78.47;;;36.25;;
65174;SDS011;51761;42.126;24.752;2024-02-21T02:02:41;68.55;;;33.55;;
65174;SDS011;51761;42.126;24.752;2024-02-21T02:05:07;80.43;;;37.42;;
65174;SDS011;51761;42.126;24.752;2024-02-21T02:07:32;79.13;;;36.55;;
65174;SDS011;51761;42.126;24.752;2024-02-21T02:09:58;75.28;;;37.38;;
65174;SDS011;51761;42.126;24.752;2024-02-21T02:12:24;77.70;;;36.65;;
65174;SDS011;51761;42.126;24.752;2024-02-21T02:14:59;86.47;;;39.90;;
65174;SDS011;51761;42.126;24.752;2024-02-21T02:17:24;82.93;;;38.97;;
65174;SDS011;51761;42.126;24.752;2024-02-21T02:19:50;78.88;;;38.65;;
65174;SDS011;51761;42.126;24.752;2024-02-21T02:22:16;76.35;;;37.53;;
65174;SDS011;51761;42.126;24.752;2024-02-21T02:24:43;81.97;;;39.63;;
65174;SDS011;51761;42.126;24.752;2024-02-21T02:27:08;75.88;;;38.17;;
65174;SDS011;51761;42.126;24.752;2024-02-21T02:29:34;85.93;;;38.67;;
65174;SDS011;51761;42.126;24.752;2024-02-21T02:31:59;85.93;;;41.58;;
65174;SDS011;51761;42.126;24.752;2024-02-21T02:34:25;96.18;;;46.53;;
65174;SDS011;51761;42.126;24.752;2024-02-21T02:36:50;108.07;;;47.95;;
65174;SDS011;51761;42.126;24.752;2024-02-21T02:39:15;108.15;;;48.50;;
65174;SDS011;51761;42.126;24.752;2024-02-21T02:41:41;105.88;;;48.08;;
65174;SDS011;51761;42.126;24.752;2024-02-21T02:44:06;116.28;;;50.30;;
65174;SDS011;51761;42.126;24.752;2024-02-21T02:46:31;109.35;;;52.03;;
65174;SDS011;51761;42.126;24.752;2024-02-21T02:48:57;121.40;;;52.92;;
65174;SDS011;51761;42.126;24.752;2024-02-21T02:51:22;122.13;;;51.80;;
65174;SDS011;51761;42.126;24.752;2024-02-21T02:53:47;118.82;;;51.65;;
65174;SDS011;51761;42.126;24.752;2024-02-21T02:56:16;109.13;;;48.58;;
65174;SDS011;51761;42.126;24.752;2024-02-21T02:58:44;114.22;;;49.17;;
65174;SDS011;51761;42.126;24.752;2024-02-21T03:01:10;107.28;;;50.00;;
65174;SDS011;51761;42.126;24.752;2024-02-21T03:03:35;102.38;;;47.78;;
65174;SDS011;51761;42.126;24.752;2024-02-21T03:06:00;103.32;;;47.75;;
65174;SDS011;51761;42.126;24.752;2024-02-21T03:08:26;106.53;;;49.13;;
65174;SDS011;51761;42.126;24.752;2024-02-21T03:10:51;105.03;;;50.03;;
65174;SDS011;51761;42.126;24.752;2024-02-21T03:13:16;107.72;;;50.60;;
65174;SDS011;51761;42.126;24.752;2024-02-21T03:15:42;109.65;;;50.28;;
65174;SDS011;51761;42.126;24.752;2024-02-21T03:18:07;114.80;;;48.47;;
65174;SDS011;51761;42.126;24.752;2024-02-21T03:20:33;107.38;;;49.10;;
65174;SDS011;51761;42.126;24.752;2024-02-21T03:22:58;113.25;;;51.55;;
65174;SDS011;51761;42.126;24.752;2024-02-21T03:25:23;111.70;;;53.33;;
65174;SDS011;51761;42.126;24.752;2024-02-21T03:27:48;146.45;;;66.05;;
65174;SDS011;51761;42.126;24.752;2024-02-21T03:30:14;108.72;;;51.53;;
65174;SDS011;51761;42.126;24.752;2024-02-21T03:32:39;123.00;;;55.17;;
65174;SDS011;51761;42.126;24.752;2024-02-21T03:35:05;123.22;;;54.63;;
65174;SDS011;51761;42.126;24.752;2024-02-21T03:37:30;120.18;;;56.17;;
65174;SDS011;51761;42.126;24.752;2024-02-21T03:39:55;124.65;;;54.35;;
65174;SDS011;51761;42.126;24.752;2024-02-21T03:42:21;117.40;;;52.25;;
65174;SDS011;51761;42.126;24.752;2024-02-21T03:44:46;128.15;;;59.67;;
65174;SDS011;51761;42.126;24.752;2024-02-21T03:47:11;164.25;;;74.80;;
65174;SDS011;51761;42.126;24.752;2024-02-21T03:49:37;124.82;;;56.28;;
65174;SDS011;51761;42.126;24.752;2024-02-21T03:52:02;110.75;;;52.83;;
65174;SDS011;51761;42.126;24.752;2024-02-21T03:54:28;103.68;;;51.67;;
65174;SDS011;51761;42.126;24.752;2024-02-21T03:56:53;117.15;;;51.28;;
65174;SDS011;51761;42.126;24.752;2024-02-21T03:59:18;110.15;;;51.92;;
65174;SDS011;51761;42.126;24.752;2024-02-21T04:01:43;112.72;;;50.15;;
65174;SDS011;51761;42.126;24.752;2024-02-21T04:04:09;112.85;;;49.85;;
65174;SDS011;51761;42.126;24.752;2024-02-21T04:06:35;105.20;;;50.38;;
65174;SDS011;51761;42.126;24.752;2024-02-21T04:09:00;117.13;;;51.00;;
65174;SDS011;51761;42.126;24.752;2024-02-21T04:11:25;107.55;;;49.67;;
65174;SDS011;51761;42.126;24.752;2024-02-21T04:13:50;107.70;;;48.78;;
65174;SDS011;51761;42.126;24.752;2024-02-21T04:16:17;103.55;;;47.13;;
65174;SDS011;51761;42.126;24.752;2024-02-21T04:18:42;107.85;;;49.60;;
65174;SDS011;51761;42.126;24.752;2024-02-21T04:21:08;110.88;;;50.03;;
65174;SDS011;51761;42.126;24.752;2024-02-21T04:23:33;109.63;;;49.60;;
65174;SDS011;51761;42.126;24.752;2024-02-21T04:25:59;103.70;;;51.47;;
65174;SDS011;51761;42.126;24.752;2024-02-21T04:28:24;109.63;;;50.80;;
65174;SDS011;51761;42.126;24.752;2024-02-21T04:30:50;94.28;;;46.33;;
65174;SDS011;51761;42.126;24.752;2024-02-21T04:33:15;89.50;;;43.17;;
65174;SDS011;51761;42.126;24.752;2024-02-21T04:35:40;93.20;;;43.67;;
65174;SDS011;51761;42.126;24.752;2024-02-21T04:38:05;83.15;;;42.65;;
65174;SDS011;51761;42.126;24.752;2024-02-21T04:40:31;84.78;;;41.78;;
65174;SDS011;51761;42.126;24.752;2024-02-21T04:42:57;99.25;;;42.05;;
65174;SDS011;51761;42.126;24.752;2024-02-21T04:45:22;87.82;;;41.08;;
65174;SDS011;51761;42.126;24.752;2024-02-21T04:47:48;79.95;;;40.17;;
65174;SDS011;51761;42.126;24.752;2024-02-21T04:50:13;85.38;;;39.95;;
65174;SDS011;51761;42.126;24.752;2024-02-21T04:52:38;87.38;;;39.72;;
65174;SDS011;51761;42.126;24.752;2024-02-21T04:55:04;82.80;;;40.38;;
65174;SDS011;51761;42.126;24.752;2024-02-21T04:57:29;85.90;;;39.63;;
65174;SDS011;51761;42.126;24.752;2024-02-21T04:59:54;98.45;;;43.25;;
65174;SDS011;51761;42.126;24.752;2024-02-21T05:02:20;87.93;;;39.05;;
65174;SDS011;51761;42.126;24.752;2024-02-21T05:04:47;85.30;;;40.70;;
65174;SDS011;51761;42.126;24.752;2024-02-21T05:07:13;94.15;;;42.45;;
65174;SDS011;51761;42.126;24.752;2024-02-21T05:09:38;85.63;;;40.13;;
65174;SDS011;51761;42.126;24.752;2024-02-21T05:12:03;90.82;;;42.17;;
65174;SDS011;51761;42.126;24.752;2024-02-21T05:14:29;87.25;;;40.55;;
65174;SDS011;51761;42.126;24.752;2024-02-21T05:16:54;86.90;;;41.50;;
65174;SDS011;51761;42.126;24.752;2024-02-21T05:19:20;88.30;;;40.72;;
65174;SDS011;51761;42.126;24.752;2024-02-21T05:21:45;90.85;;;41.65;;
65174;SDS011;51761;42.126;24.752;2024-02-21T05:24:11;87.45;;;41.28;;
65174;SDS011;51761;42.126;24.752;2024-02-21T05:26:36;95.03;;;41.97;;
65174;SDS011;51761;42.126;24.752;2024-02-21T05:29:01;86.05;;;42.60;;
65174;SDS011;51761;42.126;24.752;2024-02-21T05:31:29;89.82;;;42.80;;
65174;SDS011;51761;42.126;24.752;2024-02-21T05:34:07;93.68;;;41.88;;
65174;SDS011;51761;42.126;24.752;2024-02-21T05:36:33;94.03;;;44.22;;
65174;SDS011;51761;42.126;24.752;2024-02-21T05:38:59;90.43;;;41.55;;
65174;SDS011;51761;42.126;24.752;2024-02-21T05:41:24;90.15;;;41.10;;
65174;SDS011;51761;42.126;24.752;2024-02-21T05:43:49;87.18;;;42.22;;
65174;SDS011;51761;42.126;24.752;2024-02-21T05:46:18;99.50;;;43.35;;
65174;SDS011;51761;42.126;24.752;2024-02-21T05:48:43;87.85;;;40.70;;
65174;SDS011;51761;42.126;24.752;2024-02-21T05:51:09;92.45;;;44.05;;
65174;SDS011;51761;42.126;24.752;2024-02-21T05:53:34;88.90;;;43.80;;
65174;SDS011;51761;42.126;24.752;2024-02-21T05:56:01;94.85;;;43.38;;
65174;SDS011;51761;42.126;24.752;2024-02-21T05:58:26;97.63;;;45.30;;
65174;SDS011;51761;42.126;24.752;2024-02-21T06:00:52;99.28;;;45.05;;
65174;SDS011;51761;42.126;24.752;2024-02-21T06:03:17;87.65;;;43.20;;
65174;SDS011;51761;42.126;24.752;2024-02-21T06:05:43;106.03;;;47.03;;
65174;SDS011;51761;42.126;24.752;2024-02-21T06:08:08;107.93;;;45.13;;
65174;SDS011;51761;42.126;24.752;2024-02-21T06:10:34;93.07;;;44.17;;
65174;SDS011;51761;42.126;24.752;2024-02-21T06:12:59;95.93;;;44.30;;
65174;SDS011;51761;42.126;24.752;2024-02-21T06:15:25;93.75;;;44.65;;
65174;SDS011;51761;42.126;24.752;2024-02-21T06:17:50;103.50;;;47.95;;
65174;SDS011;51761;42.126;24.752;2024-02-21T06:20:16;95.15;;;45.78;;
65174;SDS011;51761;42.126;24.752;2024-02-21T06:22:41;99.38;;;47.53;;
65174;SDS011;51761;42.126;24.752;2024-02-21T06:25:07;98.47;;;46.10;;
65174;SDS011;51761;42.126;24.752;2024-02-21T06:27:32;102.10;;;45.78;;
65174;SDS011;51761;42.126;24.752;2024-02-21T06:29:57;93.93;;;46.25;;
65174;SDS011;51761;42.126;24.752;2024-02-21T06:32:23;96.97;;;45.25;;
65174;SDS011;51761;42.126;24.752;2024-02-21T06:34:48;100.07;;;46.70;;
65174;SDS011;51761;42.126;24.752;2024-02-21T06:37:13;89.65;;;45.25;;
65174;SDS011;51761;42.126;24.752;2024-02-21T06:39:38;93.55;;;43.70;;
65174;SDS011;51761;42.126;24.752;2024-02-21T06:42:05;91.07;;;41.58;;
65174;SDS011;51761;42.126;24.752;2024-02-21T06:44:31;85.15;;;42.33;;
65174;SDS011;51761;42.126;24.752;2024-02-21T06:46:57;92.03;;;44.20;;
65174;SDS011;51761;42.126;24.752;2024-02-21T06:49:23;96.97;;;44.45;;
65174;SDS011;51761;42.126;24.752;2024-02-21T06:51:49;89.45;;;44.40;;
65174;SDS011;51761;42.126;24.752;2024-02-21T06:54:14;100.30;;;45.67;;
65174;SDS011;51761;42.126;24.752;2024-02-21T06:56:40;92.97;;;44.08;;
65174;SDS011;51761;42.126;24.752;2024-02-21T06:59:05;93.90;;;43.35;;
65174;SDS011;51761;42.126;24.752;2024-02-21T07:01:30;88.38;;;42.28;;
65174;SDS011;51761;42.126;24.752;2024-02-21T07:03:56;88.30;;;42.63;;
65174;SDS011;51761;42.126;24.752;2024-02-21T07:06:21;82.05;;;41.92;;
65174;SDS011;51761;42.126;24.752;2024-02-21T07:08:47;92.55;;;42.25;;
65174;SDS011;51761;42.126;24.752;2024-02-21T07:11:12;84.32;;;40.63;;
65174;SDS011;51761;42.126;24.752;2024-02-21T07:13:37;70.57;;;36.30;;
65174;SDS011;51761;42.126;24.752;2024-02-21T07:16:03;63.45;;;33.70;;
65174;SDS011;51761;42.126;24.752;2024-02-21T07:18:28;58.88;;;30.55;;
65174;SDS011;51761;42.126;24.752;2024-02-21T07:20:54;56.05;;;29.00;;
65174;SDS011;51761;42.126;24.752;2024-02-21T07:23:19;54.90;;;30.25;;
65174;SDS011;51761;42.126;24.752;2024-02-21T07:25:45;50.85;;;28.98;;
65174;SDS011;51761;42.126;24.752;2024-02-21T07:28:10;49.13;;;25.98;;
65174;SDS011;51761;42.126;24.752;2024-02-21T07:30:35;47.30;;;25.98;;
65174;SDS011;51761;42.126;24.752;2024-02-21T07:33:01;42.05;;;23.55;;
65174;SDS011;51761;42.126;24.752;2024-02-21T07:35:26;45.45;;;24.67;;
65174;SDS011;51761;42.126;24.752;2024-02-21T07:37:51;38.80;;;20.95;;
65174;SDS011;51761;42.126;24.752;2024-02-21T07:40:17;40.55;;;22.27;;
65174;SDS011;51761;42.126;24.752;2024-02-21T07:42:43;36.78;;;20.63;;
65174;SDS011;51761;42.126;24.752;2024-02-21T07:45:08;37.88;;;20.15;;
65174;SDS011;51761;42.126;24.752;2024-02-21T07:47:34;30.40;;;18.52;;
65174;SDS011;51761;42.126;24.752;2024-02-21T07:49:59;41.80;;;18.88;;
65174;SDS011;51761;42.126;24.752;2024-02-21T07:52:25;30.95;;;17.75;;
65174;SDS011;51761;42.126;24.752;2024-02-21T07:54:50;27.95;;;16.88;;
65174;SDS011;51761;42.126;24.752;2024-02-21T07:57:15;33.25;;;17.90;;
65174;SDS011;51761;42.126;24.752;2024-02-21T07:59:41;28.45;;;15.88;;
65174;SDS011;51761;42.126;24.752;2024-02-21T08:02:07;26.20;;;16.63;;
65174;SDS011;51761;42.126;24.752;2024-02-21T08:04:32;29.67;;;17.38;;
65174;SDS011;51761;42.126;24.752;2024-02-21T08:06:58;29.65;;;17.00;;
65174;SDS011;51761;42.126;24.752;2024-02-21T08:09:27;32.20;;;17.42;;
65174;SDS011;51761;42.126;24.752;2024-02-21T08:11:53;30.10;;;16.98;;
65174;SDS011;51761;42.126;24.752;2024-02-21T08:14:19;29.65;;;16.95;;
65174;SDS011;51761;42.126;24.752;2024-02-21T08:17:04;31.83;;;16.88;;
65174;SDS011;51761;42.126;24.752;2024-02-21T08:19:30;29.25;;;16.35;;
65174;SDS011;51761;42.126;24.752;2024-02-21T08:21:55;30.52;;;16.15;;
65174;SDS011;51761;42.126;24.752;2024-02-21T08:24:21;23.52;;;14.30;;
65174;SDS011;51761;42.126;24.752;2024-02-21T08:26:48;25.27;;;13.55;;
65174;SDS011;51761;42.126;24.752;2024-02-21T08:29:13;29.85;;;12.05;;
65174;SDS011;51761;42.126;24.752;2024-02-21T08:31:39;18.95;;;10.68;;
65174;SDS011;51761;42.126;24.752;2024-02-21T08:34:04;21.73;;;11.13;;
65174;SDS011;51761;42.126;24.752;2024-02-21T08:36:30;21.58;;;11.45;;
65174;SDS011;51761;42.126;24.752;2024-02-21T08:38:56;22.23;;;11.88;;
65174;SDS011;51761;42.126;24.752;2024-02-21T08:41:22;19.58;;;11.35;;
65174;SDS011;51761;42.126;24.752;2024-02-21T08:43:49;18.77;;;11.43;;
65174;SDS011;51761;42.126;24.752;2024-02-21T08:46:15;20.50;;;10.68;;
65174;SDS011;51761;42.126;24.752;2024-02-21T08:48:43;18.30;;;10.52;;
65174;SDS011;51761;42.126;24.752;2024-02-21T08:51:08;17.65;;;10.27;;
65174;SDS011;51761;42.126;24.752;2024-02-21T08:53:33;18.38;;;10.38;;
65174;SDS011;51761;42.126;24.752;2024-02-21T08:55:59;13.27;;;8.45;;
65174;SDS011;51761;42.126;24.752;2024-02-21T08:58:24;15.52;;;8.35;;
65174;SDS011;51761;42.126;24.752;2024-02-21T09:00:51;17.23;;;9.00;;
65174;SDS011;51761;42.126;24.752;2024-02-21T09:03:17;16.35;;;9.50;;
65174;SDS011;51761;42.126;24.752;2024-02-21T09:05:44;18.52;;;9.75;;
65174;SDS011;51761;42.126;24.752;2024-02-21T09:08:10;16.02;;;9.95;;
65174;SDS011;51761;42.126;24.752;2024-02-21T09:10:35;18.98;;;10.13;;
65174;SDS011;51761;42.126;24.752;2024-02-21T09:13:00;22.50;;;10.88;;
65174;SDS011;51761;42.126;24.752;2024-02-21T09:15:28;20.52;;;12.52;;
65174;SDS011;51761;42.126;24.752;2024-02-21T09:17:54;23.60;;;11.52;;
65174;SDS011;51761;42.126;24.752;2024-02-21T09:20:19;23.45;;;12.60;;
65174;SDS011;51761;42.126;24.752;2024-02-21T09:22:44;22.75;;;12.00;;
65174;SDS011;51761;42.126;24.752;2024-02-21T09:25:10;17.70;;;10.73;;
65174;SDS011;51761;42.126;24.752;2024-02-21T09:27:37;18.60;;;11.48;;
65174;SDS011;51761;42.126;24.752;2024-02-21T09:30:02;16.45;;;11.10;;
65174;SDS011;51761;42.126;24.752;2024-02-21T09:32:29;16.63;;;10.98;;
65174;SDS011;51761;42.126;24.752;2024-02-21T09:34:55;19.60;;;10.35;;
65174;SDS011;51761;42.126;24.752;2024-02-21T09:37:20;14.88;;;9.43;;
65174;SDS011;51761;42.126;24.752;2024-02-21T09:39:45;17.10;;;10.93;;
65174;SDS011;51761;42.126;24.752;2024-02-21T09:42:12;12.57;;;8.50;;
65174;SDS011;51761;42.126;24.752;2024-02-21T09:44:39;11.70;;;8.13;;
65174;SDS011;51761;42.126;24.752;2024-02-21T09:47:30;11.82;;;7.80;;
65174;SDS011;51761;42.126;24.752;2024-02-21T09:49:50;17.58;;;8.80;;
65174;SDS011;51761;42.126;24.752;2024-02-21T09:52:17;13.70;;;9.38;;
65174;SDS011;51761;42.126;24.752;2024-02-21T09:54:44;11.75;;;8.68;;
65174;SDS011;51761;42.126;24.752;2024-02-21T09:57:10;11.88;;;9.18;;
65174;SDS011;51761;42.126;24.752;2024-02-21T09:59:36;12.35;;;8.23;;
65174;SDS011;51761;42.126;24.752;2024-02-21T10:02:02;12.05;;;8.32;;
65174;SDS011;51761;42.126;24.752;2024-02-21T10:04:28;14.45;;;8.30;;
65174;SDS011;51761;42.126;24.752;2024-02-21T10:06:53;11.98;;;8.60;;
65174;SDS011;51761;42.126;24.752;2024-02-21T10:11:48;16.13;;;8.85;;
65174;SDS011;51761;42.126;24.752;2024-02-21T10:14:13;15.88;;;9.65;;
65174;SDS011;51761;42.126;24.752;2024-02-21T10:16:40;13.45;;;9.02;;
65174;SDS011;51761;42.126;24.752;2024-02-21T10:19:05;13.15;;;8.35;;
65174;SDS011;51761;42.126;24.752;2024-02-21T10:21:31;15.10;;;8.82;;
65174;SDS011;51761;42.126;24.752;2024-02-21T10:23:56;13.38;;;8.88;;
65174;SDS011;51761;42.126;24.752;2024-02-21T10:26:22;10.30;;;7.90;;
65174;SDS011;51761;42.126;24.752;2024-02-21T10:28:47;15.07;;;8.43;;
65174;SDS011;51761;42.126;24.752;2024-02-21T10:31:26;13.60;;;8.43;;
65174;SDS011;51761;42.126;24.752;2024-02-21T10:33:55;15.02;;;7.95;;
65174;SDS011;51761;42.126;24.752;2024-02-21T10:36:21;12.02;;;7.47;;
65174;SDS011;51761;42.126;24.752;2024-02-21T10:38:46;9.68;;;7.20;;
65174;SDS011;51761;42.126;24.752;2024-02-21T10:41:13;8.95;;;6.18;;
65174;SDS011;51761;42.126;24.752;2024-02-21T10:43:40;10.50;;;7.22;;
65174;SDS011;51761;42.126;24.752;2024-02-21T10:46:06;11.88;;;7.63;;
65174;SDS011;51761;42.126;24.752;2024-02-21T10:48:34;11.98;;;7.60;;
65174;SDS011;51761;42.126;24.752;2024-02-21T10:51:15;10.07;;;7.05;;
65174;SDS011;51761;42.126;24.752;2024-02-21T10:53:47;10.88;;;7.28;;
65174;SDS011;51761;42.126;24.752;2024-02-21T10:56:34;11.07;;;6.95;;
65174;SDS011;51761;42.126;24.752;2024-02-21T10:59:02;12.55;;;7.38;;
65174;SDS011;51761;42.126;24.752;2024-02-21T11:01:28;12.10;;;7.47;;
65174;SDS011;51761;42.126;24.752;2024-02-21T11:03:55;12.13;;;7.93;;
65174;SDS011;51761;42.126;24.752;2024-02-21T11:06:21;13.82;;;9.77;;
65174;SDS011;51761;42.126;24.752;2024-02-21T11:08:47;12.90;;;8.75;;
65174;SDS011;51761;42.126;24.752;2024-02-21T11:11:13;15.50;;;9.73;;
65174;SDS011;51761;42.126;24.752;2024-02-21T11:13:43;11.10;;;7.65;;
65174;SDS011;51761;42.126;24.752;2024-02-21T11:16:20;10.48;;;7.28;;
65174;SDS011;51761;42.126;24.752;2024-02-21T11:18:46;11.57;;;7.93;;
65174;SDS011;51761;42.126;24.752;2024-02-21T11:21:11;11.93;;;7.45;;
65174;SDS011;51761;42.126;24.752;2024-02-21T11:23:37;8.02;;;6.35;;
65174;SDS011;51761;42.126;24.752;2024-02-21T11:26:06;10.98;;;7.32;;
65174;SDS011;51761;42.126;24.752;2024-02-21T11:28:31;7.93;;;6.10;;
65174;SDS011;51761;42.126;24.752;2024-02-21T11:31:10;9.38;;;6.53;;
65174;SDS011;51761;42.126;24.752;2024-02-21T11:33:39;8.43;;;5.97;;
65174;SDS011;51761;42.126;24.752;2024-02-21T11:36:04;12.05;;;7.13;;
65174;SDS011;51761;42.126;24.752;2024-02-21T11:38:30;9.18;;;6.32;;
65174;SDS011;51761;42.126;24.752;2024-02-21T11:40:55;11.57;;;6.43;;
65174;SDS011;51761;42.126;24.752;2024-02-21T11:43:20;8.77;;;6.53;;
65174;SDS011;51761;42.126;24.752;2024-02-21T11:45:45;8.68;;;5.70;;
65174;SDS011;51761;42.126;24.752;2024-02-21T11:48:11;9.85;;;6.15;;
65174;SDS011;51761;42.126;24.752;2024-02-21T11:50:36;6.70;;;5.20;;
65174;SDS011;51761;42.126;24.752;2024-02-21T11:53:02;9.35;;;5.72;;
65174;SDS011;51761;42.126;24.752;2024-02-21T11:55:28;8.00;;;6.03;;
65174;SDS011;51761;42.126;24.752;2024-02-21T11:57:53;10.48;;;6.13;;
65174;SDS011;51761;42.126;24.752;2024-02-21T12:00:18;9.40;;;6.22;;
65174;SDS011;51761;42.126;24.752;2024-02-21T12:02:47;9.50;;;5.22;;
65174;SDS011;51761;42.126;24.752;2024-02-21T12:05:12;8.18;;;5.53;;
65174;SDS011;51761;42.126;24.752;2024-02-21T12:07:38;7.40;;;5.47;;
65174;SDS011;51761;42.126;24.752;2024-02-21T12:10:10;7.97;;;5.03;;
65174;SDS011;51761;42.126;24.752;2024-02-21T12:12:36;6.20;;;4.93;;
65174;SDS011;51761;42.126;24.752;2024-02-21T12:15:03;6.40;;;4.82;;
65174;SDS011;51761;42.126;24.752;2024-02-21T12:17:29;6.85;;;5.05;;
65174;SDS011;51761;42.126;24.752;2024-02-21T12:19:54;9.15;;;4.65;;
65174;SDS011;51761;42.126;24.752;2024-02-21T12:22:20;8.70;;;5.18;;
65174;SDS011;51761;42.126;24.752;2024-02-21T12:24:45;6.38;;;4.60;;
65174;SDS011;51761;42.126;24.752;2024-02-21T12:27:13;9.80;;;5.20;;
65174;SDS011;51761;42.126;24.752;2024-02-21T12:29:38;8.13;;;5.07;;
65174;SDS011;51761;42.126;24.752;2024-02-21T12:32:04;6.57;;;4.32;;
65174;SDS011;51761;42.126;24.752;2024-02-21T12:34:29;6.28;;;4.35;;
65174;SDS011;51761;42.126;24.752;2024-02-21T12:36:58;7.25;;;4.82;;
65174;SDS011;51761;42.126;24.752;2024-02-21T12:39:23;6.13;;;4.45;;
65174;SDS011;51761;42.126;24.752;2024-02-21T12:41:48;7.28;;;4.85;;
65174;SDS011;51761;42.126;24.752;2024-02-21T12:44:14;6.68;;;5.00;;
65174;SDS011;51761;42.126;24.752;2024-02-21T12:46:41;7.38;;;4.75;;
65174;SDS011;51761;42.126;24.752;2024-02-21T12:49:06;5.82;;;4.57;;
65174;SDS011;51761;42.126;24.752;2024-02-21T12:51:35;6.80;;;4.53;;
65174;SDS011;51761;42.126;24.752;2024-02-21T12:54:00;6.47;;;5.07;;
65174;SDS011;51761;42.126;24.752;2024-02-21T12:56:28;7.70;;;5.57;;
65174;SDS011;51761;42.126;24.752;2024-02-21T12:58:53;6.97;;;4.85;;
65174;SDS011;51761;42.126;24.752;2024-02-21T13:01:19;7.35;;;4.47;;
65174;SDS011;51761;42.126;24.752;2024-02-21T13:03:44;7.43;;;4.85;;
65174;SDS011;51761;42.126;24.752;2024-02-21T13:06:11;5.70;;;4.32;;
65174;SDS011;51761;42.126;24.752;2024-02-21T13:08:36;5.65;;;3.97;;
65174;SDS011;51761;42.126;24.752;2024-02-21T13:11:02;6.03;;;4.32;;
65174;SDS011;51761;42.126;24.752;2024-02-21T13:13:27;5.95;;;3.40;;
65174;SDS011;51761;42.126;24.752;2024-02-21T13:15:53;4.80;;;3.60;;
65174;SDS011;51761;42.126;24.752;2024-02-21T13:18:18;6.18;;;4.50;;
65174;SDS011;51761;42.126;24.752;2024-02-21T13:20:43;6.38;;;3.83;;
65174;SDS011;51761;42.126;24.752;2024-02-21T13:23:09;6.95;;;3.88;;
65174;SDS011;51761;42.126;24.752;2024-02-21T13:25:34;5.63;;;3.95;;
65174;SDS011;51761;42.126;24.752;2024-02-21T13:27:59;4.38;;;3.42;;
65174;SDS011;51761;42.126;24.752;2024-02-21T13:30:24;5.05;;;3.35;;
65174;SDS011;51761;42.126;24.752;2024-02-21T13:32:51;4.95;;;3.50;;
65174;SDS011;51761;42.126;24.752;2024-02-21T13:35:16;6.13;;;2.97;;
65174;SDS011;51761;42.126;24.752;2024-02-21T13:37:41;4.93;;;3.55;;
65174;SDS011;51761;42.126;24.752;2024-02-21T13:40:07;6.32;;;3.67;;
65174;SDS011;51761;42.126;24.752;2024-02-21T13:42:36;5.50;;;3.80;;
65174;SDS011;51761;42.126;24.752;2024-02-21T13:45:01;5.60;;;4.53;;
65174;SDS011;51761;42.126;24.752;2024-02-21T13:47:27;4.55;;;3.30;;
65174;SDS011;51761;42.126;24.752;2024-02-21T13:49:52;7.45;;;3.80;;
65174;SDS011;51761;42.126;24.752;2024-02-21T13:52:17;5.78;;;3.53;;
65174;SDS011;51761;42.126;24.752;2024-02-21T13:54:46;4.40;;;3.60;;
65174;SDS011;51761;42.126;24.752;2024-02-21T13:57:11;6.28;;;3.67;;
65174;SDS011;51761;42.126;24.752;2024-02-21T13:59:36;6.40;;;4.30;;
65174;SDS011;51761;42.126;24.752;2024-02-21T14:02:02;6.05;;;3.30;;
65174;SDS011;51761;42.126;24.752;2024-02-21T14:04:27;6.07;;;3.95;;
65174;SDS011;51761;42.126;24.752;2024-02-21T14:06:52;6.68;;;3.42;;
65174;SDS011;51761;42.126;24.752;2024-02-21T14:09:18;6.85;;;3.42;;